createdAt,value
2022-12-03T00:01:25.893Z,2.47
2022-12-03T00:03:55.679Z,2.48
2022-12-03T00:06:26.332Z,2.53
2022-12-03T00:08:58.104Z,2.58
2022-12-03T00:11:29.693Z,2.53
2022-12-03T00:13:58.890Z,2.51
2022-12-03T00:16:28.543Z,2.55
2022-12-03T00:18:57.677Z,2.53
2022-12-03T00:21:26.890Z,2.51
2022-12-03T00:23:56.626Z,2.54
2022-12-03T00:26:27.500Z,2.52
2022-12-03T00:28:57.733Z,2.56
2022-12-03T00:31:27.034Z,2.51
2022-12-03T00:33:56.266Z,2.47
2022-12-03T00:36:26.322Z,2.44
2022-12-03T00:38:55.403Z,2.42
2022-12-03T00:41:25.333Z,2.44
2022-12-03T00:43:58.250Z,2.43
2022-12-03T00:46:27.843Z,2.42
2022-12-03T00:48:57.895Z,2.42
2022-12-03T00:51:27.472Z,2.42
2022-12-03T00:53:56.189Z,2.42
2022-12-03T00:56:25.625Z,2.42
2022-12-03T00:58:56.965Z,2.41
2022-12-03T01:01:27.499Z,2.39
2022-12-03T01:03:57.563Z,2.37
2022-12-03T01:06:26.559Z,2.37
2022-12-03T01:08:58.013Z,2.38
2022-12-03T01:11:39.107Z,2.34
2022-12-03T01:14:12.864Z,2.34
2022-12-03T01:16:42.233Z,2.33
2022-12-03T01:19:16.078Z,2.34
2022-12-03T01:21:45.989Z,2.37
2022-12-03T01:24:15.333Z,2.37
2022-12-03T01:26:44.977Z,2.42
2022-12-03T01:29:16.699Z,2.45
2022-12-03T01:32:04.000Z,2.44
2022-12-03T01:34:33.550Z,2.46
2022-12-03T01:37:03.017Z,2.48
2022-12-03T01:39:33.038Z,2.52
2022-12-03T01:42:02.516Z,2.50
2022-12-03T01:44:35.737Z,2.50
2022-12-03T01:47:07.644Z,2.53
2022-12-03T01:49:45.206Z,2.54
2022-12-03T01:52:17.530Z,2.58
2022-12-03T01:54:51.668Z,2.53
2022-12-03T01:57:26.048Z,2.52
2022-12-03T02:00:01.155Z,2.49
2022-12-03T02:02:33.320Z,2.47
2022-12-03T02:05:07.809Z,2.48
2022-12-03T02:07:36.404Z,2.49
2022-12-03T02:10:10.282Z,2.47
2022-12-03T02:12:45.213Z,2.45
2022-12-03T02:15:15.703Z,2.47
2022-12-03T02:17:45.995Z,2.47
2022-12-03T02:20:16.547Z,2.42
2022-12-03T02:22:59.289Z,2.36
2022-12-03T02:25:33.520Z,2.38
2022-12-03T02:28:05.083Z,2.39
2022-12-03T02:30:36.187Z,2.39
2022-12-03T02:33:06.598Z,2.39
2022-12-03T02:35:39.320Z,2.39
2022-12-03T02:38:15.059Z,2.35
2022-12-03T02:40:48.577Z,2.28
2022-12-03T02:43:19.036Z,2.30
2022-12-03T02:45:52.245Z,2.32
2022-12-03T02:48:26.282Z,2.35
2022-12-03T02:50:58.762Z,2.41
2022-12-03T02:53:32.177Z,2.41
2022-12-03T02:56:05.502Z,2.47
2022-12-03T02:58:35.696Z,2.47
2022-12-03T03:01:08.396Z,2.49
2022-12-03T03:03:41.257Z,2.52
2022-12-03T03:06:11.312Z,2.50
2022-12-03T03:08:41.898Z,2.51
2022-12-03T03:11:13.932Z,2.49
2022-12-03T03:13:44.247Z,2.45
2022-12-03T03:16:13.808Z,2.39
2022-12-03T03:18:43.455Z,2.41
2022-12-03T03:21:13.959Z,2.39
2022-12-03T03:23:42.980Z,2.37
2022-12-03T03:26:16.843Z,2.34
2022-12-03T03:28:51.463Z,2.35
2022-12-03T03:31:25.804Z,2.38
2022-12-03T03:33:55.608Z,2.40
2022-12-03T03:36:25.218Z,2.34
2022-12-03T03:38:55.181Z,2.38
2022-12-03T03:41:28.157Z,2.39
2022-12-03T03:43:58.620Z,2.39
2022-12-03T03:46:29.821Z,2.35
2022-12-03T03:49:00.844Z,2.33
2022-12-03T03:51:31.091Z,2.33
2022-12-03T03:54:01.173Z,2.33
2022-12-03T03:56:32.030Z,2.31
2022-12-03T03:59:02.973Z,2.36
2022-12-03T04:01:34.332Z,2.33
2022-12-03T04:04:04.444Z,2.33
2022-12-03T04:06:34.660Z,2.28
2022-12-03T04:09:03.795Z,2.26
2022-12-03T04:11:52.094Z,2.28
2022-12-03T04:14:22.637Z,2.34
2022-12-03T04:16:51.644Z,2.31
2022-12-03T04:19:22.178Z,2.27
2022-12-03T04:22:24.848Z,2.32
2022-12-03T04:25:16.470Z,2.27
2022-12-03T04:28:04.497Z,2.26
2022-12-03T04:30:34.222Z,2.27
2022-12-03T04:33:21.607Z,2.26
2022-12-03T04:35:50.325Z,2.25
2022-12-03T04:38:19.539Z,2.24
2022-12-03T04:41:05.436Z,2.24
2022-12-03T04:44:00.016Z,2.25
2022-12-03T04:46:30.250Z,2.20
2022-12-03T04:49:03.882Z,2.17
2022-12-03T04:51:34.456Z,2.17
2022-12-03T04:54:04.637Z,2.20
2022-12-03T04:56:34.950Z,2.22
2022-12-03T04:59:05.602Z,2.24
2022-12-03T05:01:35.130Z,2.21
2022-12-03T05:04:04.224Z,2.23
2022-12-03T05:06:34.363Z,2.26
2022-12-03T05:09:04.549Z,2.29
2022-12-03T05:11:48.709Z,2.33
2022-12-03T05:14:18.837Z,2.30
2022-12-03T05:16:48.143Z,2.33
2022-12-03T05:19:17.968Z,2.34
2022-12-03T05:21:46.953Z,2.32
2022-12-03T05:24:17.120Z,2.33
2022-12-03T05:26:46.278Z,2.32
2022-12-03T05:29:17.223Z,2.30
2022-12-03T05:31:47.621Z,2.28
2022-12-03T05:34:18.608Z,2.33
2022-12-03T05:36:49.303Z,2.36
2022-12-03T05:39:18.794Z,2.34
2022-12-03T05:42:06.505Z,2.32
2022-12-03T05:44:38.426Z,2.33
2022-12-03T05:47:07.456Z,2.26
2022-12-03T05:49:37.285Z,2.26
2022-12-03T05:52:08.464Z,2.27
2022-12-03T05:54:38.612Z,2.24
2022-12-03T05:57:09.273Z,2.26
2022-12-03T05:59:40.294Z,2.28
2022-12-03T06:02:09.435Z,2.30
2022-12-03T06:04:38.376Z,2.34
2022-12-03T06:07:12.511Z,2.39
2022-12-03T06:09:43.361Z,2.39
2022-12-03T06:12:13.525Z,2.35
2022-12-03T06:14:44.280Z,2.30
2022-12-03T06:17:13.971Z,2.27
2022-12-03T06:19:45.021Z,2.26
2022-12-03T06:22:15.046Z,2.24
2022-12-03T06:24:45.792Z,2.27
2022-12-03T06:27:16.236Z,2.27
2022-12-03T06:29:48.234Z,2.32
2022-12-03T06:32:18.676Z,2.29
2022-12-03T06:34:48.408Z,2.32
2022-12-03T06:37:17.892Z,2.32
2022-12-03T06:39:47.929Z,2.32
2022-12-03T06:42:17.566Z,2.34
2022-12-03T06:44:48.824Z,2.36
2022-12-03T06:47:19.393Z,2.30
2022-12-03T06:49:49.587Z,2.31
2022-12-03T06:52:20.282Z,2.33
2022-12-03T06:54:50.292Z,2.35
2022-12-03T06:57:20.236Z,2.33
2022-12-03T06:59:51.950Z,2.31
2022-12-03T07:02:22.640Z,2.32
2022-12-03T07:04:53.365Z,2.32
2022-12-03T07:07:22.019Z,2.32
2022-12-03T07:09:51.630Z,2.33
2022-12-03T07:12:21.290Z,2.35
2022-12-03T07:14:52.598Z,2.34
2022-12-03T07:17:21.336Z,2.36
2022-12-03T07:19:51.503Z,2.29
2022-12-03T07:22:22.312Z,2.29
2022-12-03T07:24:52.955Z,2.26
2022-12-03T07:27:23.253Z,2.31
2022-12-03T07:29:54.619Z,2.29
2022-12-03T07:32:24.819Z,2.32
2022-12-03T07:34:55.307Z,2.31
2022-12-03T07:37:25.004Z,2.32
2022-12-03T07:39:55.156Z,2.32
2022-12-03T07:42:24.886Z,2.31
2022-12-03T07:44:56.630Z,2.35
2022-12-03T07:47:26.200Z,2.33
2022-12-03T07:49:55.487Z,2.33
2022-12-03T07:52:25.190Z,2.33
2022-12-03T07:54:55.035Z,2.38
2022-12-03T07:57:25.068Z,2.36
2022-12-03T07:59:55.964Z,2.38
2022-12-03T08:02:26.726Z,2.34
2022-12-03T08:04:55.972Z,2.33
2022-12-03T08:07:25.604Z,2.35
2022-12-03T08:09:57.042Z,2.33
2022-12-03T08:12:40.405Z,2.34
2022-12-03T08:15:21.918Z,2.34
2022-12-03T08:17:58.815Z,2.39
2022-12-03T08:20:32.864Z,2.39
2022-12-03T08:23:08.587Z,2.41
2022-12-03T08:25:38.639Z,2.38
2022-12-03T08:28:15.806Z,2.34
2022-12-03T08:30:51.844Z,2.34
2022-12-03T08:33:31.359Z,2.33
2022-12-03T08:36:03.124Z,2.31
2022-12-03T08:38:32.101Z,2.29
2022-12-03T08:41:01.647Z,2.31
2022-12-03T08:43:42.481Z,2.31
2022-12-03T08:46:20.841Z,2.32
2022-12-03T08:48:50.521Z,2.27
2022-12-03T08:51:25.410Z,2.26
2022-12-03T08:54:02.210Z,2.25
2022-12-03T08:56:37.082Z,2.19
2022-12-03T08:59:26.020Z,2.21
2022-12-03T09:01:57.833Z,2.21
2022-12-03T09:04:33.120Z,2.21
2022-12-03T09:07:03.267Z,2.26
2022-12-03T09:09:33.790Z,2.27
2022-12-03T09:12:03.225Z,2.25
2022-12-03T09:14:33.158Z,2.24
2022-12-03T09:17:04.079Z,2.27
2022-12-03T09:19:33.182Z,2.25
2022-12-03T09:22:02.469Z,2.19
2022-12-03T09:24:31.781Z,2.17
2022-12-03T09:27:01.261Z,2.17
2022-12-03T09:29:30.990Z,2.16
2022-12-03T09:32:00.201Z,2.19
2022-12-03T09:34:31.811Z,2.20
2022-12-03T09:37:01.821Z,2.21
2022-12-03T09:39:31.633Z,2.25
2022-12-03T09:42:00.862Z,2.20
2022-12-03T09:44:33.713Z,2.24
2022-12-03T09:47:04.256Z,2.24
2022-12-03T09:49:37.773Z,2.23
2022-12-03T09:52:09.012Z,2.33
2022-12-03T09:54:41.634Z,2.37
2022-12-03T09:57:15.295Z,2.34
2022-12-03T09:59:45.117Z,2.36
2022-12-03T10:02:23.477Z,2.39
2022-12-03T10:04:56.490Z,2.44
2022-12-03T10:07:27.714Z,2.48
2022-12-03T10:09:57.404Z,2.50
2022-12-03T10:12:26.599Z,2.47
2022-12-03T10:14:57.611Z,2.49
2022-12-03T10:17:30.257Z,2.51
2022-12-03T10:20:03.047Z,2.53
2022-12-03T10:22:36.961Z,2.56
2022-12-03T10:25:10.969Z,2.53
2022-12-03T10:27:41.304Z,2.52
2022-12-03T10:30:19.687Z,2.51
2022-12-03T10:32:51.292Z,2.50
2022-12-03T10:35:26.011Z,2.50
2022-12-03T10:38:03.508Z,2.50
2022-12-03T10:40:36.191Z,2.54
2022-12-03T10:43:23.430Z,2.58
2022-12-03T10:46:13.325Z,2.59
2022-12-03T10:48:41.908Z,2.60
2022-12-03T10:51:21.440Z,2.61
2022-12-03T10:53:52.547Z,2.59
2022-12-03T10:56:26.588Z,2.58
2022-12-03T10:58:56.634Z,2.60
2022-12-03T11:01:28.113Z,2.58
2022-12-03T11:04:04.588Z,2.59
2022-12-03T11:06:34.559Z,2.57
2022-12-03T11:09:08.849Z,2.60
2022-12-03T11:11:39.883Z,2.62
2022-12-03T11:14:11.698Z,2.64
2022-12-03T11:17:11.235Z,2.67
2022-12-03T11:19:50.363Z,2.66
2022-12-03T11:22:46.981Z,2.68
2022-12-03T11:25:50.914Z,2.68
2022-12-03T11:28:38.277Z,2.66
2022-12-03T11:31:15.297Z,2.68
2022-12-03T11:33:44.793Z,2.69
2022-12-03T11:36:31.536Z,2.74
2022-12-03T11:39:03.941Z,2.70
2022-12-03T11:41:35.816Z,2.70
2022-12-03T11:44:33.796Z,2.63
2022-12-03T11:47:15.938Z,2.64
2022-12-03T11:49:51.512Z,2.66
2022-12-03T11:52:30.008Z,2.70
2022-12-03T11:55:06.763Z,2.71
2022-12-03T11:57:39.838Z,2.73
2022-12-03T12:00:22.630Z,2.69
2022-12-03T12:02:53.489Z,2.68
2022-12-03T12:05:28.101Z,2.71
2022-12-03T12:07:58.598Z,2.73
2022-12-03T12:10:48.897Z,2.70
2022-12-03T12:13:52.092Z,2.67
2022-12-03T12:16:51.364Z,2.65
2022-12-03T12:19:38.133Z,2.65
2022-12-03T12:22:36.286Z,2.70
2022-12-03T12:25:27.180Z,2.73
2022-12-03T12:27:58.215Z,2.76
2022-12-03T12:30:27.696Z,2.78
2022-12-03T12:33:13.628Z,2.81
2022-12-03T12:35:43.941Z,2.81
2022-12-03T12:38:19.433Z,2.84
2022-12-03T12:40:51.568Z,2.87
2022-12-03T12:43:27.768Z,2.91
2022-12-03T12:46:18.526Z,2.95
2022-12-03T12:48:52.530Z,2.98
2022-12-03T12:51:24.274Z,2.97
2022-12-03T12:53:53.631Z,3.02
2022-12-03T12:56:26.744Z,3.02
2022-12-03T12:59:00.374Z,3.07
2022-12-03T13:01:32.269Z,3.08
2022-12-03T13:04:02.291Z,3.07
2022-12-03T13:06:33.517Z,3.10
2022-12-03T13:09:03.547Z,3.09
2022-12-03T13:11:41.386Z,3.09
2022-12-03T13:14:18.744Z,3.09
2022-12-03T13:16:50.158Z,3.11
2022-12-03T13:19:27.047Z,3.11
2022-12-03T13:21:58.070Z,3.09
2022-12-03T13:24:39.473Z,3.04
2022-12-03T13:27:26.846Z,3.07
2022-12-03T13:30:02.535Z,3.07
2022-12-03T13:32:35.788Z,3.09
2022-12-03T13:35:12.900Z,3.08
2022-12-03T13:37:42.587Z,3.04
2022-12-03T13:40:25.619Z,3.06
2022-12-03T13:42:54.999Z,3.04
2022-12-03T13:45:36.485Z,3.04
2022-12-03T13:48:20.047Z,3.09
2022-12-03T13:50:49.587Z,3.12
2022-12-03T13:53:24.534Z,3.12
2022-12-03T13:56:05.114Z,3.12
2022-12-03T13:58:34.663Z,3.11
2022-12-03T14:01:05.681Z,3.09
2022-12-03T14:03:34.946Z,3.11
2022-12-03T14:06:03.972Z,3.12
2022-12-03T14:08:34.142Z,3.11
2022-12-03T14:11:03.758Z,3.13
2022-12-03T14:13:33.434Z,3.11
2022-12-03T14:16:02.468Z,3.12
2022-12-03T14:18:33.943Z,3.08
2022-12-03T14:21:03.952Z,3.09
2022-12-03T14:23:33.834Z,3.10
2022-12-03T14:26:04.081Z,3.11
2022-12-03T14:28:34.631Z,3.13
2022-12-03T14:31:03.589Z,3.13
2022-12-03T14:33:33.428Z,3.14
2022-12-03T14:36:02.872Z,3.13
2022-12-03T14:38:33.212Z,3.13
2022-12-03T14:41:02.464Z,3.15
2022-12-03T14:43:31.016Z,3.12
2022-12-03T14:46:01.611Z,3.09
2022-12-03T14:48:30.968Z,3.07
2022-12-03T14:51:01.284Z,3.06
2022-12-03T14:53:30.998Z,3.02
2022-12-03T14:56:00.734Z,3.00
2022-12-03T14:58:31.162Z,3.00
2022-12-03T15:01:00.560Z,3.03
2022-12-03T15:03:30.500Z,3.03
2022-12-03T15:06:01.755Z,3.02
2022-12-03T15:08:31.966Z,2.98
2022-12-03T15:11:01.322Z,3.00
2022-12-03T15:13:31.333Z,3.01
2022-12-03T15:16:00.536Z,3.00
2022-12-03T15:18:30.811Z,3.01
2022-12-03T15:21:02.621Z,3.03
2022-12-03T15:23:32.557Z,3.00
2022-12-03T15:26:02.005Z,2.98
2022-12-03T15:28:31.359Z,2.99
2022-12-03T15:31:00.864Z,2.97
2022-12-03T15:33:30.502Z,3.01
2022-12-03T15:36:03.299Z,3.01
2022-12-03T15:38:32.159Z,3.00
2022-12-03T15:41:20.681Z,3.01
2022-12-03T15:43:50.235Z,2.99
2022-12-03T15:46:19.482Z,2.98
2022-12-03T15:48:48.679Z,2.99
2022-12-03T15:51:18.760Z,3.00
2022-12-03T15:53:47.301Z,2.99
2022-12-03T15:56:15.887Z,3.00
2022-12-03T15:58:45.220Z,3.00
2022-12-03T16:01:15.009Z,3.01
2022-12-03T16:03:44.577Z,3.03
2022-12-03T16:06:14.802Z,3.00
2022-12-03T16:08:45.309Z,2.97
2022-12-03T16:11:15.049Z,2.98
2022-12-03T16:13:44.321Z,3.00
2022-12-03T16:16:13.971Z,3.00
2022-12-03T16:18:42.857Z,2.98
2022-12-03T16:21:11.514Z,2.94
2022-12-03T16:23:40.985Z,2.92
2022-12-03T16:26:11.852Z,2.95
2022-12-03T16:28:40.548Z,2.94
2022-12-03T16:31:10.574Z,2.97
2022-12-03T16:33:39.783Z,2.98
2022-12-03T16:36:10.968Z,2.98
2022-12-03T16:38:40.895Z,2.97
2022-12-03T16:41:11.217Z,2.99
2022-12-03T16:43:40.303Z,3.00
2022-12-03T16:46:25.970Z,3.01
2022-12-03T16:48:57.888Z,3.01
2022-12-03T16:51:28.707Z,3.01
2022-12-03T16:53:58.108Z,3.02
2022-12-03T16:56:29.691Z,3.03
2022-12-03T16:58:58.094Z,3.04
2022-12-03T17:01:27.575Z,3.04
2022-12-03T17:03:57.096Z,3.05
2022-12-03T17:06:26.353Z,3.02
2022-12-03T17:08:55.233Z,3.04
2022-12-03T17:11:24.608Z,3.09
2022-12-03T17:13:55.340Z,3.10
2022-12-03T17:16:24.539Z,3.11
2022-12-03T17:18:54.360Z,3.11
2022-12-03T17:21:24.120Z,3.11
2022-12-03T17:23:53.784Z,3.11
2022-12-03T17:26:23.075Z,3.12
2022-12-03T17:28:51.524Z,3.09
2022-12-03T17:31:21.866Z,3.07
2022-12-03T17:33:52.703Z,3.06
2022-12-03T17:36:21.729Z,3.08
2022-12-03T17:38:51.279Z,3.11
2022-12-03T17:41:20.239Z,3.10
2022-12-03T17:43:49.919Z,3.12
2022-12-03T17:46:19.927Z,3.12
2022-12-03T17:48:50.964Z,3.11
2022-12-03T17:51:21.360Z,3.07
2022-12-03T17:53:51.818Z,3.09
2022-12-03T17:56:20.980Z,3.09
2022-12-03T17:58:50.384Z,3.02
2022-12-03T18:01:19.484Z,3.05
2022-12-03T18:03:49.853Z,3.03
2022-12-03T18:06:19.985Z,3.07
2022-12-03T18:08:49.087Z,3.08
2022-12-03T18:11:18.102Z,3.08
2022-12-03T18:13:46.561Z,3.07
2022-12-03T18:16:16.707Z,3.03
2022-12-03T18:18:46.266Z,3.04
2022-12-03T18:21:16.876Z,3.04
2022-12-03T18:23:46.503Z,3.00
2022-12-03T18:26:15.293Z,2.96
2022-12-03T18:28:45.060Z,2.98
2022-12-03T18:31:18.383Z,2.98
2022-12-03T18:33:47.720Z,2.99
2022-12-03T18:36:22.848Z,3.02
2022-12-03T18:38:55.312Z,3.01
2022-12-03T18:41:26.092Z,3.02
2022-12-03T18:43:55.163Z,3.01
2022-12-03T18:46:51.927Z,2.96
2022-12-03T18:49:14.321Z,2.98
2022-12-03T18:51:45.303Z,2.96
2022-12-03T18:54:15.447Z,2.96
2022-12-03T18:56:45.451Z,2.98
2022-12-03T18:59:14.945Z,2.97
2022-12-03T19:01:45.026Z,2.99
2022-12-03T19:04:15.033Z,2.96
2022-12-03T19:06:45.959Z,2.98
2022-12-03T19:09:14.855Z,2.98
2022-12-03T19:11:43.820Z,2.99
2022-12-03T19:14:13.508Z,3.01
2022-12-03T19:16:44.534Z,3.02
2022-12-03T19:19:14.610Z,3.00
2022-12-03T19:21:45.165Z,2.99
2022-12-03T19:24:30.597Z,2.97
2022-12-03T19:27:00.135Z,2.99
2022-12-03T19:29:28.629Z,2.99
2022-12-03T19:31:57.098Z,3.00
2022-12-03T19:34:26.966Z,2.98
2022-12-03T19:36:57.461Z,3.01
2022-12-03T19:39:26.475Z,2.98
2022-12-03T19:41:56.027Z,2.97
2022-12-03T19:44:25.043Z,2.97
2022-12-03T19:46:54.481Z,2.93
2022-12-03T19:49:24.035Z,2.95
2022-12-03T19:51:53.338Z,2.95
2022-12-03T19:54:24.397Z,2.99
2022-12-03T19:56:53.811Z,3.01
2022-12-03T19:59:23.636Z,3.01
2022-12-03T20:01:54.261Z,2.98
2022-12-03T20:04:22.789Z,2.99
2022-12-03T20:06:51.776Z,2.96
2022-12-03T20:09:23.581Z,2.98
2022-12-03T20:11:53.873Z,2.95
2022-12-03T20:14:23.238Z,2.97
2022-12-03T20:16:52.848Z,2.99
2022-12-03T20:19:22.479Z,2.99
2022-12-03T20:21:51.642Z,2.98
2022-12-03T20:24:22.501Z,2.99
2022-12-03T20:26:51.079Z,2.98
2022-12-03T20:29:19.499Z,2.99
2022-12-03T20:31:48.910Z,2.98
2022-12-03T20:34:17.794Z,2.92
2022-12-03T20:36:47.353Z,2.93
2022-12-03T20:39:17.838Z,2.94
2022-12-03T20:41:49.311Z,2.93
2022-12-03T20:44:18.762Z,2.93
2022-12-03T20:46:48.133Z,2.88
2022-12-03T20:49:17.513Z,2.86
2022-12-03T20:51:45.964Z,2.85
2022-12-03T20:54:15.947Z,2.87
2022-12-03T20:56:44.979Z,2.86
2022-12-03T20:59:17.969Z,2.87
2022-12-03T21:01:47.000Z,2.91
2022-12-03T21:04:18.187Z,2.91
2022-12-03T21:06:47.650Z,2.93
2022-12-03T21:09:16.091Z,2.92
2022-12-03T21:11:45.465Z,2.93
2022-12-03T21:14:16.398Z,2.95
2022-12-03T21:17:19.267Z,2.92
2022-12-03T21:19:39.148Z,2.89
2022-12-03T21:22:08.678Z,2.89
2022-12-03T21:24:38.261Z,2.86
2022-12-03T21:27:08.199Z,2.88
2022-12-03T21:29:39.679Z,2.87
2022-12-03T21:32:09.531Z,2.87
2022-12-03T21:34:37.987Z,2.89
2022-12-03T21:37:07.052Z,2.91
2022-12-03T21:39:37.546Z,2.90
2022-12-03T21:42:35.069Z,2.94
2022-12-03T21:44:56.153Z,2.94
2022-12-03T21:47:25.752Z,2.97
2022-12-03T21:49:55.397Z,2.98
2022-12-03T21:52:24.490Z,2.97
2022-12-03T21:54:54.603Z,2.94
2022-12-03T21:57:24.250Z,2.90
2022-12-03T21:59:53.112Z,2.94
2022-12-03T22:02:24.425Z,2.95
2022-12-03T22:04:55.024Z,2.93
2022-12-03T22:07:24.978Z,2.89
2022-12-03T22:09:54.567Z,2.91
2022-12-03T22:12:24.317Z,2.90
2022-12-03T22:14:57.103Z,2.89
2022-12-03T22:17:28.449Z,2.88
2022-12-03T22:19:57.168Z,2.91
2022-12-03T22:22:26.119Z,2.88
2022-12-03T22:24:54.494Z,2.85
2022-12-03T22:27:23.347Z,2.84
2022-12-03T22:29:54.186Z,2.84
2022-12-03T22:32:23.860Z,2.83
2022-12-03T22:34:54.908Z,2.81
2022-12-03T22:37:25.102Z,2.81
2022-12-03T22:39:55.444Z,2.81
2022-12-03T22:42:25.477Z,2.79
2022-12-03T22:44:54.486Z,2.80
2022-12-03T22:47:23.469Z,2.75
2022-12-03T22:49:54.089Z,2.73
2022-12-03T22:52:23.884Z,2.72
2022-12-03T22:54:53.313Z,2.73
2022-12-03T22:57:22.770Z,2.75
2022-12-03T22:59:52.450Z,2.73
2022-12-03T23:02:22.375Z,2.74
2022-12-03T23:04:57.313Z,2.73
2022-12-03T23:07:26.282Z,2.74
2022-12-03T23:09:56.435Z,2.75
2022-12-03T23:12:26.100Z,2.79
2022-12-03T23:14:55.833Z,2.78
2022-12-03T23:17:26.280Z,2.74
2022-12-03T23:19:57.903Z,2.77
2022-12-03T23:22:27.941Z,2.78
2022-12-03T23:24:57.336Z,2.76
2022-12-03T23:27:26.843Z,2.74
2022-12-03T23:29:55.983Z,2.70
2022-12-03T23:32:25.119Z,2.70
2022-12-03T23:34:56.670Z,2.69
2022-12-03T23:37:27.248Z,2.64
2022-12-03T23:39:57.338Z,2.62
2022-12-03T23:42:26.988Z,2.60
2022-12-03T23:44:56.499Z,2.61
2022-12-03T23:47:26.521Z,2.61
2022-12-03T23:49:56.453Z,2.60
2022-12-03T23:52:25.685Z,2.61
2022-12-03T23:54:55.026Z,2.60
2022-12-03T23:57:24.030Z,2.62
2022-12-03T23:59:54.267Z,2.65
